createdAt,value
2019-05-10T00:00:17.043Z,14.50
2019-05-10T00:03:04.852Z,13.67
2019-05-10T00:05:53.149Z,13.87
2019-05-10T00:08:41.024Z,15.57
2019-05-10T00:11:33.275Z,14.30
2019-05-10T00:14:36.411Z,13.67
2019-05-10T00:17:14.239Z,15.40
2019-05-10T00:19:44.774Z,15.53
2019-05-10T00:22:15.423Z,15.67
2019-05-10T00:25:01.673Z,15.53
2019-05-10T00:27:18.099Z,16.33
2019-05-10T00:29:50.337Z,15.97
2019-05-10T00:32:21.037Z,16.83
2019-05-10T00:34:51.493Z,16.40
2019-05-10T00:37:21.923Z,15.60
2019-05-10T00:39:52.826Z,16.73
2019-05-10T00:42:24.273Z,16.93
2019-05-10T00:44:54.790Z,18.17
2019-05-10T00:47:25.219Z,19.57
2019-05-10T00:49:55.621Z,18.43
2019-05-10T00:52:26.069Z,17.47
2019-05-10T00:54:56.449Z,16.87
2019-05-10T00:57:26.831Z,18.87
2019-05-10T00:59:57.241Z,19.77
2019-05-10T01:02:27.633Z,17.00
2019-05-10T01:04:59.245Z,18.37
2019-05-10T01:07:29.659Z,19.00
2019-05-10T01:10:00.023Z,17.90
2019-05-10T01:12:30.377Z,18.53
2019-05-10T01:15:00.709Z,17.27
2019-05-10T01:17:32.122Z,18.80
2019-05-10T01:20:02.520Z,18.93
2019-05-10T01:22:32.871Z,18.43
2019-05-10T01:25:03.289Z,15.87
2019-05-10T01:27:33.636Z,18.27
2019-05-10T01:30:04.713Z,16.90
2019-05-10T01:32:35.341Z,18.80
2019-05-10T01:35:05.899Z,18.53
2019-05-10T01:37:36.261Z,20.37
2019-05-10T01:40:06.999Z,20.10
2019-05-10T01:42:37.374Z,18.73
2019-05-10T01:45:09.431Z,19.30
2019-05-10T01:47:39.915Z,18.67
2019-05-10T01:50:11.577Z,20.40
2019-05-10T01:52:41.971Z,22.37
2019-05-10T01:55:13.737Z,19.90
2019-05-10T01:57:44.135Z,20.43
2019-05-10T02:00:15.625Z,19.43
2019-05-10T02:02:46.021Z,20.90
2019-05-10T02:05:16.763Z,19.80
2019-05-10T02:07:47.168Z,22.93
2019-05-10T02:10:17.571Z,20.83
2019-05-10T02:12:48.005Z,19.70
2019-05-10T02:15:18.619Z,22.77
2019-05-10T02:17:49.221Z,22.90
2019-05-10T02:20:20.723Z,21.73
2019-05-10T02:22:51.064Z,19.63
2019-05-10T02:25:21.547Z,22.20
2019-05-10T02:27:51.876Z,20.30
2019-05-10T02:30:23.749Z,21.87
2019-05-10T02:32:54.114Z,20.23
2019-05-10T02:35:24.541Z,21.17
2019-05-10T02:37:54.855Z,22.87
2019-05-10T02:40:25.604Z,22.73
2019-05-10T02:42:58.353Z,21.17
2019-05-10T02:45:29.050Z,22.90
2019-05-10T02:47:59.428Z,21.53
2019-05-10T02:50:29.805Z,23.53
2019-05-10T02:53:00.190Z,21.13
2019-05-10T02:55:31.637Z,22.33
2019-05-10T02:58:02.209Z,23.33
2019-05-10T03:00:35.505Z,23.07
2019-05-10T03:03:07.553Z,22.90
2019-05-10T03:05:39.968Z,25.60
2019-05-10T03:08:12.903Z,23.27
2019-05-10T03:11:02.876Z,24.50
2019-05-10T03:13:33.296Z,21.37
2019-05-10T03:16:05.180Z,23.37
2019-05-10T03:18:35.554Z,22.57
2019-05-10T03:21:09.209Z,23.63
2019-05-10T03:23:39.609Z,22.33
2019-05-10T03:26:09.966Z,21.13
2019-05-10T03:28:40.294Z,22.70
2019-05-10T03:31:11.108Z,24.43
2019-05-10T03:33:41.870Z,25.03
2019-05-10T03:36:12.702Z,23.70
2019-05-10T03:38:43.615Z,24.60
2019-05-10T03:41:14.404Z,25.43
2019-05-10T03:43:47.076Z,25.30
2019-05-10T03:46:17.407Z,27.50
2019-05-10T03:48:47.975Z,26.27
2019-05-10T03:51:18.423Z,27.27
2019-05-10T03:53:49.931Z,28.03
2019-05-10T03:56:20.408Z,27.83
2019-05-10T03:58:50.823Z,28.73
2019-05-10T04:01:21.360Z,29.47
2019-05-10T04:03:51.742Z,27.90
2019-05-10T04:06:22.112Z,32.93
2019-05-10T04:08:52.560Z,30.47
2019-05-10T04:11:22.911Z,29.43
2019-05-10T04:13:53.373Z,30.93
2019-05-10T04:16:24.905Z,31.73
2019-05-10T04:18:55.367Z,33.90
2019-05-10T04:21:25.753Z,30.30
2019-05-10T04:23:56.210Z,30.13
2019-05-10T04:26:26.580Z,30.70
2019-05-10T04:28:57.042Z,30.10
2019-05-10T04:31:27.429Z,31.13
2019-05-10T04:33:57.875Z,31.27
2019-05-10T04:36:28.417Z,32.60
2019-05-10T04:38:58.778Z,29.63
2019-05-10T04:41:29.187Z,32.43
2019-05-10T04:43:59.549Z,32.40
2019-05-10T04:46:29.970Z,33.03
2019-05-10T04:49:00.399Z,33.07
2019-05-10T04:51:31.052Z,36.87
2019-05-10T04:54:01.564Z,35.83
2019-05-10T04:56:31.960Z,36.70
2019-05-10T04:59:02.344Z,35.77
2019-05-10T05:01:32.719Z,37.67
2019-05-10T05:04:03.097Z,35.93
2019-05-10T05:06:33.539Z,41.50
2019-05-10T05:09:05.987Z,39.50
2019-05-10T05:11:36.383Z,38.47
2019-05-10T05:14:09.408Z,41.37
2019-05-10T05:16:38.809Z,38.80
2019-05-10T05:19:09.137Z,38.50
2019-05-10T05:21:39.624Z,42.17
2019-05-10T05:24:09.977Z,39.10
2019-05-10T05:26:40.495Z,40.10
2019-05-10T05:29:10.846Z,41.30
2019-05-10T05:31:41.275Z,43.07
2019-05-10T05:34:11.758Z,41.13
2019-05-10T05:36:42.174Z,37.77
2019-05-10T05:39:12.572Z,43.37
2019-05-10T05:41:48.986Z,41.80
2019-05-10T05:44:14.971Z,40.53
2019-05-10T05:46:45.444Z,39.80
2019-05-10T05:49:15.824Z,39.20
2019-05-10T05:51:46.251Z,43.20
2019-05-10T05:54:20.909Z,42.77
2019-05-10T05:56:50.605Z,41.97
2019-05-10T05:59:23.821Z,42.40
2019-05-10T06:01:53.051Z,41.00
2019-05-10T06:04:23.393Z,44.37
2019-05-10T06:06:58.760Z,41.17
2019-05-10T06:09:26.027Z,44.43
2019-05-10T06:11:56.536Z,40.83
2019-05-10T06:14:27.192Z,42.30
2019-05-10T06:16:57.711Z,43.10
2019-05-10T06:19:29.919Z,42.70
2019-05-10T06:22:04.518Z,41.10
2019-05-10T06:24:34.335Z,43.30
2019-05-10T06:27:05.091Z,43.40
2019-05-10T06:29:35.711Z,42.60
2019-05-10T06:32:06.153Z,41.70
2019-05-10T06:34:38.735Z,41.37
2019-05-10T06:37:08.781Z,39.20
2019-05-10T06:39:39.180Z,37.93
2019-05-10T06:42:09.645Z,34.73
2019-05-10T06:44:40.223Z,36.53
2019-05-10T06:47:11.375Z,36.67
2019-05-10T06:49:50.637Z,32.27
2019-05-10T06:52:16.233Z,36.93
2019-05-10T06:54:46.335Z,26.60
2019-05-10T06:57:17.368Z,26.70
2019-05-10T06:59:48.751Z,32.17
2019-05-10T07:02:20.085Z,29.83
2019-05-10T07:04:51.435Z,33.57
2019-05-10T07:07:42.757Z,30.73
2019-05-10T07:10:10.337Z,27.50
2019-05-10T07:12:29.941Z,24.63
2019-05-10T07:15:03.530Z,26.47
2019-05-10T07:17:30.572Z,27.63
2019-05-10T07:20:01.323Z,29.50
2019-05-10T07:22:32.930Z,29.70
2019-05-10T07:25:05.071Z,23.43
2019-05-10T07:27:38.194Z,19.97
2019-05-10T07:30:08.409Z,24.33
2019-05-10T07:32:39.066Z,24.40
2019-05-10T07:35:09.654Z,26.80
2019-05-10T07:37:40.164Z,29.60
2019-05-10T07:40:10.842Z,26.53
2019-05-10T07:42:45.654Z,20.73
2019-05-10T07:45:13.504Z,25.83
2019-05-10T07:47:43.892Z,23.37
2019-05-10T07:50:14.796Z,24.10
2019-05-10T07:52:45.762Z,24.93
2019-05-10T07:55:18.650Z,25.33
2019-05-10T07:57:48.787Z,24.03
2019-05-10T08:00:19.318Z,26.60
2019-05-10T08:02:59.324Z,21.50
2019-05-10T08:05:23.034Z,18.87
2019-05-10T08:07:53.753Z,18.77
2019-05-10T08:10:24.199Z,19.70
2019-05-10T08:12:54.884Z,21.13
2019-05-10T08:15:30.513Z,21.13
2019-05-10T08:17:58.559Z,20.97
2019-05-10T08:20:43.675Z,21.73
2019-05-10T08:23:02.836Z,17.70
2019-05-10T08:25:36.420Z,22.57
2019-05-10T08:28:05.624Z,20.13
2019-05-10T08:30:51.233Z,16.73
2019-05-10T08:33:14.373Z,17.93
2019-05-10T08:35:46.538Z,21.13
2019-05-10T08:38:17.232Z,22.07
2019-05-10T08:40:48.073Z,21.97
2019-05-10T08:43:18.499Z,18.00
2019-05-10T08:45:49.718Z,21.00
2019-05-10T08:48:23.129Z,20.60
2019-05-10T08:50:57.136Z,17.80
2019-05-10T08:53:25.032Z,13.13
2019-05-10T08:55:58.684Z,15.97
2019-05-10T08:58:31.492Z,12.83
2019-05-10T09:01:14.638Z,16.40
2019-05-10T09:03:32.279Z,19.70
2019-05-10T09:06:11.029Z,15.60
2019-05-10T09:08:34.932Z,16.90
2019-05-10T09:11:06.965Z,19.20
2019-05-10T09:13:41.128Z,16.20
2019-05-10T09:16:09.231Z,16.37
2019-05-10T09:18:46.632Z,15.23
2019-05-10T09:21:14.334Z,16.80
2019-05-10T09:23:43.765Z,15.50
2019-05-10T09:26:16.603Z,15.87
2019-05-10T09:28:47.616Z,14.50
2019-05-10T09:31:22.854Z,15.03
2019-05-10T09:33:54.041Z,14.33
2019-05-10T09:36:30.759Z,16.37
2019-05-10T09:38:55.172Z,17.13
2019-05-10T09:41:27.713Z,19.27
2019-05-10T09:43:57.739Z,19.77
2019-05-10T09:46:28.133Z,21.30
2019-05-10T09:49:06.038Z,19.87
2019-05-10T09:51:33.118Z,20.67
2019-05-10T09:54:03.778Z,20.00
2019-05-10T09:56:42.053Z,21.93
2019-05-10T09:59:08.385Z,25.17
2019-05-10T10:01:39.332Z,27.77
2019-05-10T10:04:09.770Z,21.83
2019-05-10T10:06:41.820Z,22.27
2019-05-10T10:09:12.212Z,22.27
2019-05-10T10:11:48.172Z,25.07
2019-05-10T10:14:17.773Z,26.20
2019-05-10T10:16:57.845Z,23.10
2019-05-10T10:19:22.472Z,25.40
2019-05-10T10:21:51.097Z,24.53
2019-05-10T10:24:22.024Z,27.30
2019-05-10T10:26:53.976Z,24.97
2019-05-10T10:29:28.858Z,22.20
2019-05-10T10:31:58.835Z,21.90
2019-05-10T10:34:32.684Z,23.83
2019-05-10T10:37:00.635Z,22.53
2019-05-10T10:39:32.226Z,21.60
2019-05-10T10:42:08.770Z,21.27
2019-05-10T10:44:37.098Z,22.73
2019-05-10T10:47:08.367Z,23.37
2019-05-10T10:49:39.079Z,23.60
2019-05-10T10:52:11.386Z,24.20
2019-05-10T10:54:41.573Z,25.50
2019-05-10T10:57:12.042Z,26.17
2019-05-10T10:59:42.482Z,26.43
2019-05-10T11:02:33.185Z,25.03
2019-05-10T11:04:46.932Z,24.97
2019-05-10T11:07:16.957Z,27.53
2019-05-10T11:09:47.476Z,27.43
2019-05-10T11:12:20.875Z,28.30
2019-05-10T11:14:49.889Z,31.50
2019-05-10T11:17:20.252Z,28.87
2019-05-10T11:19:50.596Z,28.10
2019-05-10T11:22:21.555Z,30.00
2019-05-10T11:25:03.043Z,31.70
2019-05-10T11:27:24.346Z,33.73
2019-05-10T11:29:55.241Z,32.17
2019-05-10T11:32:25.902Z,31.63
2019-05-10T11:34:56.272Z,33.40
2019-05-10T11:37:32.650Z,33.47
2019-05-10T11:40:01.712Z,34.97
2019-05-10T11:42:32.246Z,37.73
2019-05-10T11:45:02.865Z,34.43
2019-05-10T11:47:33.340Z,36.30
2019-05-10T11:50:06.447Z,34.93
2019-05-10T11:52:36.610Z,36.10
2019-05-10T11:55:07.573Z,40.77
2019-05-10T11:57:43.619Z,35.17
2019-05-10T12:00:24.315Z,33.43
2019-05-10T12:03:01.584Z,35.87
2019-05-10T12:05:19.876Z,33.40
2019-05-10T12:07:47.636Z,33.10
2019-05-10T12:10:24.854Z,33.53
2019-05-10T12:13:06.055Z,33.73
2019-05-10T12:15:25.730Z,31.33
2019-05-10T12:17:59.588Z,34.20
2019-05-10T12:20:41.164Z,32.33
2019-05-10T12:23:03.267Z,29.20
2019-05-10T12:26:35.812Z,30.30
2019-05-10T12:28:04.860Z,28.92
2019-05-10T12:30:37.212Z,25.70
2019-05-10T12:33:09.855Z,25.68
2019-05-10T12:35:46.569Z,27.30
2019-05-10T12:38:13.239Z,24.35
2019-05-10T12:40:45.777Z,22.65
2019-05-10T12:43:15.706Z,23.05
2019-05-10T12:45:46.234Z,23.95
2019-05-10T12:48:16.932Z,22.85
2019-05-10T12:50:47.270Z,24.95
2019-05-10T12:53:18.532Z,24.30
2019-05-10T12:55:49.370Z,21.05
2019-05-10T12:58:19.756Z,23.87
2019-05-10T13:00:52.492Z,21.70
2019-05-10T13:03:25.329Z,21.90
2019-05-10T13:05:54.165Z,21.87
2019-05-10T13:08:25.376Z,22.67
2019-05-10T13:10:55.734Z,23.42
2019-05-10T13:13:29.748Z,23.65
2019-05-10T13:15:58.628Z,24.43
2019-05-10T13:21:02.884Z,25.75
2019-05-10T13:23:33.304Z,23.22
2019-05-10T13:26:03.712Z,27.10
2019-05-10T13:28:34.114Z,24.57
2019-05-10T13:31:05.790Z,25.35
2019-05-10T13:33:42.105Z,28.45
2019-05-10T13:36:08.757Z,26.73
2019-05-10T13:38:43.985Z,28.42
2019-05-10T13:41:12.098Z,24.52
2019-05-10T13:43:42.460Z,28.20
2019-05-10T13:46:12.938Z,28.95
2019-05-10T13:48:43.341Z,26.57
2019-05-10T13:51:14.288Z,27.62
2019-05-10T13:53:44.712Z,25.37
2019-05-10T13:56:15.159Z,28.83
2019-05-10T13:58:45.675Z,29.37
2019-05-10T14:01:16.023Z,28.45
2019-05-10T14:03:53.733Z,31.07
2019-05-10T14:06:18.486Z,28.92
2019-05-10T14:08:50.529Z,26.02
2019-05-10T14:11:21.082Z,25.65
2019-05-10T14:13:51.640Z,23.67
2019-05-10T14:16:22.589Z,26.30
2019-05-10T14:18:53.333Z,25.15
2019-05-10T14:21:23.630Z,24.65
2019-05-10T14:23:56.984Z,25.32
2019-05-10T14:26:27.192Z,26.85
2019-05-10T14:28:57.787Z,25.57
2019-05-10T14:31:28.218Z,25.55
2019-05-10T14:34:14.861Z,26.30
2019-05-10T14:36:34.067Z,25.80
2019-05-10T14:39:02.920Z,39.38
2019-05-10T14:41:33.316Z,23.77
2019-05-10T14:44:03.793Z,24.75
2019-05-10T14:46:34.485Z,24.80
2019-05-10T14:49:09.695Z,25.85
2019-05-10T14:51:49.550Z,24.32
2019-05-10T14:54:09.278Z,22.70
2019-05-10T14:56:39.814Z,26.42
2019-05-10T14:59:11.389Z,26.75
2019-05-10T15:01:42.972Z,24.47
2019-05-10T15:04:35.743Z,24.77
2019-05-10T15:06:47.273Z,23.25
2019-05-10T15:09:22.085Z,23.35
2019-05-10T15:11:49.745Z,25.92
2019-05-10T15:14:20.168Z,25.72
2019-05-10T15:16:51.033Z,37.65
2019-05-10T15:19:25.336Z,40.17
2019-05-10T15:21:53.748Z,22.10
2019-05-10T15:24:24.440Z,22.15
2019-05-10T15:26:54.954Z,24.45
2019-05-10T15:29:25.399Z,23.92
2019-05-10T15:31:55.775Z,24.15
2019-05-10T15:34:26.439Z,23.92
2019-05-10T15:37:02.439Z,23.12
2019-05-10T15:39:30.495Z,32.40
2019-05-10T15:42:01.105Z,24.90
2019-05-10T15:44:33.673Z,21.57
2019-05-10T15:47:04.193Z,23.83
2019-05-10T15:49:34.651Z,22.67
2019-05-10T15:52:17.001Z,24.87
2019-05-10T15:54:38.007Z,25.52
2019-05-10T15:57:09.639Z,23.50
2019-05-10T15:59:42.950Z,22.90
2019-05-10T16:02:13.378Z,34.88
2019-05-10T16:04:43.857Z,35.15
2019-05-10T16:07:16.526Z,22.67
2019-05-10T16:09:49.863Z,23.42
2019-05-10T16:12:19.016Z,23.53
2019-05-10T16:14:50.789Z,23.10
2019-05-10T16:17:23.941Z,22.13
2019-05-10T16:19:59.728Z,23.60
2019-05-10T16:22:30.354Z,24.98
2019-05-10T16:25:00.988Z,21.15
2019-05-10T16:27:33.951Z,22.52
2019-05-10T16:30:02.723Z,24.17
2019-05-10T16:32:36.301Z,24.10
2019-05-10T16:35:12.560Z,22.13
2019-05-10T16:37:39.404Z,21.43
2019-05-10T16:40:10.026Z,23.23
2019-05-10T16:42:40.463Z,23.57
2019-05-10T16:45:11.261Z,23.80
2019-05-10T16:47:41.899Z,23.90
2019-05-10T16:50:13.313Z,21.73
2019-05-10T16:52:43.725Z,22.50
2019-05-10T16:55:14.467Z,21.83
2019-05-10T16:57:45.019Z,24.53
2019-05-10T17:00:15.679Z,21.80
2019-05-10T17:02:46.071Z,21.47
2019-05-10T17:05:17.350Z,20.83
2019-05-10T17:07:48.179Z,26.47
2019-05-10T17:10:18.876Z,24.13
2019-05-10T17:12:49.220Z,22.33
2019-05-10T17:15:19.583Z,24.97
2019-05-10T17:17:49.933Z,24.17
2019-05-10T17:20:20.651Z,23.37
2019-05-10T17:22:51.033Z,22.33
2019-05-10T17:25:22.779Z,21.13
2019-05-10T17:27:57.556Z,26.70
2019-05-10T17:30:27.715Z,23.80
2019-05-10T17:33:04.117Z,25.97
2019-05-10T17:35:30.420Z,22.10
2019-05-10T17:38:01.019Z,20.77
2019-05-10T17:40:31.331Z,20.80
2019-05-10T17:43:02.620Z,20.93
2019-05-10T17:45:34.713Z,20.83
2019-05-10T17:48:08.587Z,19.30
2019-05-10T17:50:37.199Z,20.53
2019-05-10T17:53:07.635Z,29.83
2019-05-10T17:55:38.079Z,18.37
2019-05-10T17:58:08.475Z,19.80
2019-05-10T18:00:38.880Z,19.30
2019-05-10T18:03:09.359Z,18.70
2019-05-10T18:05:41.301Z,19.47
2019-05-10T18:08:11.874Z,20.63
2019-05-10T18:10:42.307Z,20.30
2019-05-10T18:13:12.945Z,20.77
2019-05-10T18:15:43.351Z,19.70
2019-05-10T18:18:13.719Z,20.53
2019-05-10T18:20:44.668Z,20.67
2019-05-10T18:23:21.467Z,19.43
2019-05-10T18:25:52.523Z,19.73
2019-05-10T18:28:21.642Z,26.30
2019-05-10T18:30:52.087Z,23.17
2019-05-10T18:33:23.670Z,21.33
2019-05-10T18:35:54.744Z,19.33
2019-05-10T18:38:30.927Z,20.07
2019-05-10T18:40:58.049Z,20.90
2019-05-10T18:43:28.403Z,22.30
2019-05-10T18:46:01.303Z,22.77
2019-05-10T18:48:30.819Z,20.67
2019-05-10T18:51:01.528Z,20.90
2019-05-10T18:53:31.921Z,18.93
2019-05-10T18:56:02.375Z,20.10
2019-05-10T18:58:32.782Z,21.47
2019-05-10T19:01:03.193Z,22.03
2019-05-10T19:03:35.358Z,23.40
2019-05-10T19:06:11.157Z,22.40
2019-05-10T19:08:38.396Z,21.57
2019-05-10T19:11:09.253Z,20.07
2019-05-10T19:13:47.108Z,24.80
2019-05-10T19:16:12.293Z,22.63
2019-05-10T19:18:42.717Z,23.63
2019-05-10T19:21:13.133Z,20.77
2019-05-10T19:23:43.547Z,23.73
2019-05-10T19:26:17.369Z,21.93
2019-05-10T19:28:46.097Z,22.47
2019-05-10T19:31:16.475Z,23.90
2019-05-10T19:33:46.878Z,22.33
2019-05-10T19:36:17.323Z,21.13
2019-05-10T19:38:47.693Z,25.83
2019-05-10T19:41:20.240Z,25.43
2019-05-10T19:43:56.306Z,23.90
2019-05-10T19:46:23.503Z,28.13
2019-05-10T19:48:53.999Z,23.47
2019-05-10T19:51:24.504Z,22.20
2019-05-10T19:53:54.933Z,23.57
2019-05-10T19:56:30.092Z,24.00
2019-05-10T19:58:57.223Z,23.23
2019-05-10T20:01:27.709Z,24.77
2019-05-10T20:03:58.135Z,22.83
2019-05-10T20:06:28.578Z,22.77
2019-05-10T20:08:58.981Z,22.33
2019-05-10T20:11:29.473Z,24.17
2019-05-10T20:13:59.873Z,24.17
2019-05-10T20:16:30.441Z,22.87
2019-05-10T20:19:00.796Z,23.70
2019-05-10T20:21:31.348Z,22.53
2019-05-10T20:24:02.189Z,22.73
2019-05-10T20:26:32.661Z,24.17
2019-05-10T20:29:03.525Z,24.30
2019-05-10T20:31:33.933Z,20.73
2019-05-10T20:34:04.319Z,22.20
2019-05-10T20:36:35.024Z,20.17
2019-05-10T20:39:07.387Z,21.93
2019-05-10T20:41:37.841Z,23.07
2019-05-10T20:44:08.302Z,22.43
2019-05-10T20:46:38.704Z,24.00
2019-05-10T20:49:09.108Z,21.73
2019-05-10T20:51:41.460Z,23.13
2019-05-10T20:54:12.031Z,21.83
2019-05-10T20:56:42.753Z,21.77
2019-05-10T20:59:13.568Z,22.97
2019-05-10T21:01:43.967Z,21.90
2019-05-10T21:04:14.420Z,27.90
2019-05-10T21:06:44.834Z,23.47
2019-05-10T21:09:16.841Z,22.30
2019-05-10T21:11:47.272Z,24.07
2019-05-10T21:14:17.897Z,24.00
2019-05-10T21:16:48.335Z,33.03
2019-05-10T21:19:20.065Z,32.33
2019-05-10T21:21:50.665Z,37.20
2019-05-10T21:24:22.109Z,27.93
2019-05-10T21:26:52.483Z,26.47
2019-05-10T21:29:23.222Z,28.17
2019-05-10T21:31:53.556Z,30.87
2019-05-10T21:34:24.006Z,31.53
2019-05-10T21:36:54.707Z,30.77
2019-05-10T21:39:25.096Z,37.87
2019-05-10T21:41:55.549Z,35.70
2019-05-10T21:44:26.439Z,35.07
2019-05-10T21:46:57.177Z,35.10
2019-05-10T21:49:27.562Z,30.47
2019-05-10T21:51:57.968Z,34.53
2019-05-10T21:54:28.561Z,37.47
2019-05-10T21:56:58.943Z,34.90
2019-05-10T21:59:29.441Z,35.20
2019-05-10T22:01:59.824Z,34.63
2019-05-10T22:04:30.264Z,40.43
2019-05-10T22:07:01.192Z,40.10
2019-05-10T22:09:31.531Z,41.90
2019-05-10T22:12:02.369Z,36.10
2019-05-10T22:14:32.849Z,39.47
2019-05-10T22:17:03.324Z,40.27
2019-05-10T22:19:33.835Z,38.67
2019-05-10T22:22:04.180Z,35.60
2019-05-10T22:24:34.810Z,35.37
2019-05-10T22:27:05.283Z,39.03
2019-05-10T22:29:35.650Z,36.87
2019-05-10T22:32:06.345Z,36.87
2019-05-10T22:34:36.951Z,36.37
2019-05-10T22:37:07.309Z,36.23
2019-05-10T22:39:38.006Z,35.53
2019-05-10T22:42:08.437Z,39.47
2019-05-10T22:44:38.847Z,35.30
2019-05-10T22:47:09.258Z,35.77
2019-05-10T22:49:39.647Z,34.27
2019-05-10T22:52:10.071Z,33.87
2019-05-10T22:54:40.490Z,37.13
2019-05-10T22:57:10.908Z,33.20
2019-05-10T22:59:41.306Z,37.50
2019-05-10T23:02:11.648Z,38.20
2019-05-10T23:04:42.110Z,36.73
2019-05-10T23:07:12.505Z,37.27
2019-05-10T23:09:42.852Z,40.13
2019-05-10T23:12:13.277Z,39.60
2019-05-10T23:14:43.707Z,38.17
2019-05-10T23:17:15.377Z,36.53
2019-05-10T23:19:45.744Z,38.10
2019-05-10T23:22:16.175Z,38.97
2019-05-10T23:24:46.630Z,37.80
2019-05-10T23:27:17.068Z,37.97
2019-05-10T23:29:47.522Z,36.77
2019-05-10T23:32:17.936Z,36.10
2019-05-10T23:34:48.317Z,36.27
2019-05-10T23:37:18.992Z,37.37
2019-05-10T23:39:49.689Z,36.53
2019-05-10T23:42:20.044Z,35.47
2019-05-10T23:44:50.569Z,38.43
2019-05-10T23:47:20.981Z,36.73
2019-05-10T23:49:51.784Z,35.60
2019-05-10T23:52:22.138Z,35.70
2019-05-10T23:54:52.595Z,34.37
2019-05-10T23:57:22.980Z,37.23
2019-05-10T23:59:53.346Z,35.67
